Aérodrome :
LOGIN :

S'inscrire | Disclaimer

   EN    FR    IT 

 










Légende :    VFR   VFR Marginal   IFR   IFR Intensif   IFR Très Intensif
Visi : 
Plafond : 
>= 8 km
>= 3000ft
5 à 8 km
1000 à 3000 ft
1500m à 5 km
500 à 1000 ft
800 à 1500m
200 à 500 ft
< 800m
< 200 ft
Symboles :   Orages  Brouillard  Fortes neiges  Fortes précipitations  Vent > 20 kt
SIGMETs :   Divers  Orages  Givrage  Turbulence  Onde Orograph.  Cendres Volcan.







- Altitude de l'aérodrome : 433 ft
- Code IATA : CCF
- Voir les cartes d'approche


LFMK - Carcassonne

DERNIER METAR :
  • 270330Z AUTO 27013KT 9999 SCT076 13/10 Q1016 BECMG 28015G25KT

METARs EXPIRÉS :
  • 270300Z AUTO 27014KT 9999 OVC068 14/11 Q1016 BECMG 28015G25KT
  • 270230Z AUTO 27013KT 9999 OVC072 14/11 Q1016
  • 270200Z AUTO 28013KT 9999 BKN060 OVC070 14/12 Q1016
  • 270130Z AUTO 28014KT 9999 BKN020 BKN025 OVC058 14/12 Q1016
  • 270100Z AUTO 28013KT 9999 BKN021 BKN056 OVC070 15/12 Q1017

TAF TAF LFMK
Valide du 27 à 03h jusqu'au 28 à 03h UTC


270200Z 2703/2803 28015G25KT 9999 BKN020 BKN055 BKN070
TEMPO 2715/2722 RA
Pas de NOTAMs connus pour ce terrain.



MET'MAP, la Météo Aéronautique d'un coup d'oeil ! - Copyright ORBIFLY Décembre 2007 - Disclaimer

ORBIFLY MET'MAP TEAM :

Programmation & Développement : Alexandra Zaïnal
Conception & Développement : Baudouin d'Aumeries
Co-Programmation & Développement : Marc-Olivier Méhu
Soutien technique & logistique : Manuel Goepfert

Contact : metmap@orbifly.com




SOURCES & CREDITS :

   NOAA